createdAt,value
2023-04-12T00:11:46.469Z,6.5
2023-04-12T00:24:46.495Z,6.3
2023-04-12T00:37:46.507Z,6.0
2023-04-12T00:50:46.514Z,5.8
2023-04-12T01:03:46.648Z,6.9
2023-04-12T01:16:46.580Z,6.5
2023-04-12T01:29:46.511Z,7.0
2023-04-12T01:42:46.531Z,6.9
2023-04-12T01:55:46.581Z,6.8
2023-04-12T02:08:46.572Z,6.6
2023-04-12T02:21:46.594Z,6.7
2023-04-12T02:34:46.574Z,6.3
2023-04-12T02:47:46.599Z,6.0
2023-04-12T03:00:46.588Z,5.6
2023-04-12T03:13:46.611Z,5.7
2023-04-12T03:26:46.609Z,5.3
2023-04-12T03:39:46.600Z,5.1
2023-04-12T03:52:46.624Z,5.1
2023-04-12T04:05:46.607Z,4.9
2023-04-12T04:18:46.661Z,5.1
2023-04-12T04:32:46.710Z,5.2
2023-04-12T04:46:46.616Z,5.9
2023-04-12T05:00:46.701Z,6.9
2023-04-12T05:14:51.379Z,7.5
2023-04-12T05:28:46.684Z,8.7
2023-04-12T05:42:46.701Z,9.1
2023-04-12T05:56:46.719Z,9.9
2023-04-12T06:10:46.823Z,11.0
2023-04-12T06:24:46.742Z,11.8
2023-04-12T06:38:46.789Z,11.7
2023-04-12T06:52:46.755Z,12.3
2023-04-12T07:07:46.756Z,13.1
2023-04-12T07:21:46.760Z,13.7
2023-04-12T07:35:46.799Z,14.2
2023-04-12T07:49:46.821Z,14.4
2023-04-12T08:03:46.920Z,14.7
2023-04-12T08:17:47.034Z,14.8
2023-04-12T08:31:46.834Z,14.9
2023-04-12T08:45:46.797Z,15.0
2023-04-12T08:59:46.814Z,15.5
2023-04-12T09:13:46.886Z,16.2
2023-04-12T09:27:46.907Z,16.3
2023-04-12T09:41:46.892Z,16.3
2023-04-12T09:55:46.864Z,17.1
2023-04-12T10:09:46.868Z,17.0
2023-04-12T10:23:46.913Z,16.8
2023-04-12T10:37:46.885Z,16.1
2023-04-12T10:51:47.099Z,15.8
2023-04-12T11:05:46.980Z,16.2
2023-04-12T11:19:46.939Z,16.9
2023-04-12T11:33:46.952Z,17.1
2023-04-12T11:47:46.940Z,17.1
2023-04-12T12:01:46.977Z,17.1
2023-04-12T12:15:46.987Z,16.6
2023-04-12T12:29:46.976Z,17.1
2023-04-12T12:43:46.973Z,16.6
2023-04-12T12:57:52.203Z,16.7
2023-04-12T13:11:46.997Z,17.2
2023-04-12T13:25:47.004Z,16.9
2023-04-12T13:39:47.052Z,17.0
2023-04-12T13:53:47.093Z,16.6
2023-04-12T14:07:47.238Z,16.7
2023-04-12T14:21:47.227Z,16.8
2023-04-12T14:35:47.236Z,16.7
2023-04-12T14:49:47.106Z,16.5
2023-04-12T15:02:47.186Z,16.3
2023-04-12T15:16:47.233Z,16.2
2023-04-12T15:31:47.176Z,16.0
2023-04-12T15:45:47.458Z,16.0
2023-04-12T15:59:47.220Z,15.7
2023-04-12T16:13:47.228Z,15.4
2023-04-12T16:27:47.229Z,15.3
2023-04-12T16:41:47.224Z,15.2
2023-04-12T16:55:47.300Z,14.9
2023-04-12T17:09:47.263Z,14.6
2023-04-12T17:23:47.495Z,14.1
2023-04-12T17:38:47.311Z,13.6
2023-04-12T17:52:47.303Z,13.1
2023-04-12T18:06:47.314Z,12.8
2023-04-12T18:25:47.346Z,12.9
2023-04-12T18:38:47.348Z,12.4
2023-04-12T18:55:47.378Z,12.3
2023-04-12T19:08:47.762Z,12.1
2023-04-12T19:21:47.434Z,12.0
2023-04-12T19:34:47.775Z,12.1
2023-04-12T19:47:47.826Z,12.0
2023-04-12T20:00:47.443Z,11.9
2023-04-12T20:13:48.030Z,11.9
2023-04-12T20:26:47.649Z,11.9
2023-04-12T20:39:48.892Z,11.9
2023-04-12T20:52:48.648Z,11.8
2023-04-12T21:05:47.466Z,11.8
2023-04-12T21:18:47.449Z,11.6
2023-04-12T21:31:47.501Z,11.6
2023-04-12T21:44:47.713Z,11.5
2023-04-12T21:57:47.537Z,11.6
2023-04-12T22:10:47.544Z,11.3
2023-04-12T22:23:47.527Z,10.6
2023-04-12T22:36:47.524Z,10.0
2023-04-12T22:49:47.529Z,9.6
2023-04-12T23:05:47.548Z,9.5
2023-04-12T23:18:47.546Z,9.3
2023-04-12T23:31:47.614Z,9.1
2023-04-12T23:44:47.556Z,9.0
2023-04-12T23:57:47.582Z,8.9
